createdAt,value
2023-05-02T00:01:07.088Z,94.8794
2023-05-02T00:02:07.750Z,94.6322
2023-05-02T00:03:07.878Z,94.8388
2023-05-02T00:04:08.244Z,94.9052
2023-05-02T00:06:08.786Z,94.9975
2023-05-02T00:10:11.966Z,95.4689
2023-05-02T00:11:12.571Z,95.5649
2023-05-02T00:12:13.206Z,95.5587
2023-05-02T00:14:13.001Z,95.5595
2023-05-02T00:15:14.543Z,95.6209
2023-05-02T00:18:16.146Z,95.7355
2023-05-02T00:19:17.969Z,95.8448
2023-05-02T00:20:18.667Z,95.9471
2023-05-02T00:23:20.368Z,96.1170
2023-05-02T00:24:21.569Z,96.1890
2023-05-02T00:26:22.552Z,96.2694
2023-05-02T00:27:23.255Z,96.2978
2023-05-02T00:28:24.052Z,96.3098
2023-05-02T00:29:24.820Z,96.3196
2023-05-02T00:30:25.774Z,96.3234
2023-05-02T00:31:26.239Z,96.3214
2023-05-02T00:32:26.357Z,96.3711
2023-05-02T00:33:28.176Z,96.4255
2023-05-02T00:34:28.697Z,96.4803
2023-05-02T00:35:29.015Z,96.5006
2023-05-02T00:36:29.556Z,96.5232
2023-05-02T00:37:30.268Z,96.5673
2023-05-02T00:38:30.582Z,96.5452
2023-05-02T00:39:30.651Z,96.4334
2023-05-02T00:40:31.065Z,96.2634
2023-05-02T00:41:33.393Z,96.2906
2023-05-02T00:48:39.331Z,96.0705
2023-05-02T00:49:40.293Z,96.1213
2023-05-02T00:50:41.221Z,96.0644
2023-05-02T00:51:41.487Z,96.1196
2023-05-02T00:52:41.719Z,96.1925
2023-05-02T00:53:43.333Z,96.2107
2023-05-02T00:54:44.444Z,96.2303
2023-05-02T00:55:45.986Z,96.1964
2023-05-02T00:56:46.413Z,96.0324
2023-05-02T00:59:48.502Z,95.8965
2023-05-02T01:00:49.697Z,95.9259
2023-05-02T01:01:50.073Z,95.9642
2023-05-02T01:04:53.426Z,96.0146
2023-05-02T01:05:54.696Z,96.0208
2023-05-02T01:06:55.242Z,96.0477
2023-05-02T01:07:55.453Z,96.0886
2023-05-02T01:08:55.953Z,96.0922
2023-05-02T01:09:57.382Z,96.1187
2023-05-02T01:10:58.428Z,96.1561
2023-05-02T01:11:58.872Z,96.0793
2023-05-02T01:12:58.930Z,96.0709
2023-05-02T01:14:00.051Z,96.0102
2023-05-02T01:15:00.100Z,96.0490
2023-05-02T01:16:00.999Z,96.0510
2023-05-02T01:17:03.263Z,96.1017
2023-05-02T01:18:04.347Z,96.1322
2023-05-02T01:19:04.767Z,96.1901
2023-05-02T01:20:06.136Z,96.1497
2023-05-02T01:23:08.882Z,96.3271
2023-05-02T01:28:10.662Z,96.3872
2023-05-02T01:29:11.026Z,96.4061
2023-05-02T01:30:12.871Z,96.4404
2023-05-02T01:32:12.885Z,96.5755
2023-05-02T01:33:14.594Z,96.6474
2023-05-02T01:34:15.209Z,96.7022
2023-05-02T01:35:15.437Z,96.7026
2023-05-02T01:36:16.771Z,96.7183
2023-05-02T01:37:17.601Z,96.8416
2023-05-02T01:38:18.600Z,96.9510
2023-05-02T01:39:19.665Z,96.9423
2023-05-02T01:40:20.752Z,96.9690
2023-05-02T01:41:21.058Z,97.0198
2023-05-02T01:42:23.054Z,97.0472
2023-05-02T01:43:24.116Z,97.0737
2023-05-02T01:44:25.458Z,97.0834
2023-05-02T01:53:40.722Z,96.9195
2023-05-02T01:54:40.725Z,96.8074
2023-05-02T01:55:42.320Z,96.7927
2023-05-02T01:56:43.009Z,96.7362
2023-05-02T01:57:43.003Z,96.7704
2023-05-02T01:58:43.858Z,96.7741
2023-05-02T01:59:45.305Z,96.7803
2023-05-02T02:00:46.724Z,96.7880
2023-05-02T02:01:47.097Z,96.8280
2023-05-02T02:09:58.669Z,97.1801
2023-05-02T02:10:59.668Z,97.1442
2023-05-02T02:12:01.098Z,97.1199
2023-05-02T02:13:02.648Z,97.0480
2023-05-02T02:16:05.020Z,97.0960
2023-05-02T02:17:05.446Z,97.2072
2023-05-02T02:18:05.500Z,97.3032
2023-05-02T02:19:06.204Z,97.3227
2023-05-02T02:20:06.965Z,97.3185
2023-05-02T02:21:07.532Z,97.3182
2023-05-02T02:22:08.128Z,97.3183
2023-05-02T02:23:08.715Z,97.2848
2023-05-02T02:24:09.335Z,97.0517
2023-05-02T02:25:09.831Z,96.8816
2023-05-02T02:26:10.436Z,96.7232
2023-05-02T02:27:10.981Z,96.6600
2023-05-02T02:28:11.444Z,96.6552
2023-05-02T02:29:11.952Z,96.5977
2023-05-02T02:30:12.457Z,96.4467
2023-05-02T02:31:13.349Z,96.3127
2023-05-02T02:32:14.153Z,96.3352
2023-05-02T02:33:14.903Z,96.3137
2023-05-02T02:34:15.631Z,96.2790
2023-05-02T02:35:16.209Z,96.3525
2023-05-02T02:36:16.631Z,96.3539
2023-05-02T02:37:17.357Z,96.3438
2023-05-02T02:38:17.980Z,96.3666
2023-05-02T02:39:18.464Z,96.3457
2023-05-02T02:40:19.156Z,96.1945
2023-05-02T02:41:19.584Z,96.0273
2023-05-02T02:42:20.172Z,96.0765
2023-05-02T02:43:20.780Z,96.0685
2023-05-02T02:44:20.845Z,96.0413
2023-05-02T02:45:22.391Z,95.9872
2023-05-02T02:47:23.304Z,95.8270
2023-05-02T02:48:23.652Z,95.5718
2023-05-02T02:49:24.200Z,95.5646
2023-05-02T02:50:24.518Z,95.4682
2023-05-02T02:51:25.107Z,95.4117
2023-05-02T02:52:25.443Z,95.2228
2023-05-02T02:53:25.558Z,95.1791
2023-05-02T02:54:30.136Z,95.1765
2023-05-02T02:55:30.545Z,95.2512
2023-05-02T02:56:30.925Z,95.1741
2023-05-02T02:57:31.417Z,95.2465
2023-05-02T02:58:31.922Z,95.1984
2023-05-02T02:59:32.215Z,95.3058
2023-05-02T03:00:32.633Z,95.3791
2023-05-02T03:01:33.231Z,95.1103
2023-05-02T03:02:33.768Z,94.7995
2023-05-02T03:03:35.018Z,94.8783
2023-05-02T03:04:35.653Z,95.0093
2023-05-02T03:05:36.197Z,94.8117
2023-05-02T03:06:37.030Z,94.7762
2023-05-02T03:07:37.739Z,94.8452
2023-05-02T03:08:38.277Z,94.8263
2023-05-02T03:09:38.801Z,94.6517
2023-05-02T03:10:39.112Z,94.4614
2023-05-02T03:11:39.611Z,94.3121
2023-05-02T03:12:40.448Z,94.3577
2023-05-02T03:13:41.335Z,94.3241
2023-05-02T03:14:42.106Z,94.1961
2023-05-02T03:15:42.537Z,94.2073
2023-05-02T03:16:43.512Z,94.1408
2023-05-02T03:17:44.331Z,93.8165
2023-05-02T03:18:45.964Z,93.5114
2023-05-02T03:19:46.263Z,93.4804
2023-05-02T03:20:46.850Z,93.5437
2023-05-02T03:21:47.592Z,93.7164
2023-05-02T03:22:48.559Z,93.8071
2023-05-02T03:23:49.089Z,93.9377
2023-05-02T03:24:49.609Z,93.7862
2023-05-02T03:25:51.466Z,93.9484
2023-05-02T03:27:51.123Z,94.0620
2023-05-02T03:28:51.695Z,94.2320
2023-05-02T03:29:52.194Z,94.6797
2023-05-02T03:30:52.463Z,94.8199
2023-05-02T03:31:53.252Z,94.7832
2023-05-02T03:32:54.439Z,94.6705
2023-05-02T03:33:55.195Z,94.4209
2023-05-02T03:34:55.690Z,94.4999
2023-05-02T03:35:56.140Z,94.2473
2023-05-02T03:36:56.640Z,93.8156
2023-05-02T03:37:57.158Z,93.7943
2023-05-02T03:38:57.523Z,93.7403
2023-05-02T03:39:58.216Z,93.5143
2023-05-02T03:40:58.253Z,93.5825
2023-05-02T03:41:58.707Z,93.4764
2023-05-02T03:42:59.150Z,93.3730
2023-05-02T03:43:59.566Z,93.4107
2023-05-02T03:45:00.210Z,93.2546
2023-05-02T03:46:01.380Z,93.4632
2023-05-02T03:47:02.243Z,93.6921
2023-05-02T03:48:03.352Z,93.7352
2023-05-02T03:49:04.032Z,93.8485
2023-05-02T03:50:04.377Z,93.6646
2023-05-02T03:51:04.930Z,93.6661
2023-05-02T03:52:05.598Z,93.7781
2023-05-02T03:53:06.814Z,93.7969
2023-05-02T03:54:07.365Z,93.9937
2023-05-02T03:55:08.033Z,94.1668
2023-05-02T03:56:08.390Z,93.9153
2023-05-02T03:57:09.167Z,93.8124
2023-05-02T03:58:09.568Z,93.5053
2023-05-02T03:59:10.396Z,93.5363
2023-05-02T04:00:11.302Z,93.6143
2023-05-02T04:01:11.843Z,93.6822
2023-05-02T04:02:12.370Z,93.8729
2023-05-02T04:03:12.573Z,93.7846
2023-05-02T04:04:13.349Z,93.8660
2023-05-02T04:05:13.825Z,94.1764
2023-05-02T04:06:14.955Z,94.1756
2023-05-02T04:07:15.484Z,94.0860
2023-05-02T04:08:16.014Z,94.0052
2023-05-02T04:09:16.684Z,93.9567
2023-05-02T04:10:17.772Z,93.9166
2023-05-02T04:11:18.410Z,93.9702
2023-05-02T04:12:18.945Z,94.0325
2023-05-02T04:13:19.293Z,94.1660
2023-05-02T04:14:20.025Z,94.1698
2023-05-02T04:15:20.440Z,94.1687
2023-05-02T04:16:21.228Z,94.1204
2023-05-02T04:17:21.301Z,94.1142
2023-05-02T04:18:22.139Z,94.0120
2023-05-02T04:19:22.699Z,93.7743
2023-05-02T04:20:23.225Z,93.7305
2023-05-02T04:21:23.785Z,93.7956
2023-05-02T04:22:24.430Z,93.8181
2023-05-02T04:23:24.690Z,93.9144
2023-05-02T04:24:25.289Z,94.3001
2023-05-02T04:25:25.726Z,94.3951
2023-05-02T04:26:26.216Z,94.3433
2023-05-02T04:27:26.367Z,93.8680
2023-05-02T04:28:26.884Z,93.5559
2023-05-02T04:29:27.525Z,93.6865
2023-05-02T04:30:28.464Z,93.8253
2023-05-02T04:31:29.119Z,93.8370
2023-05-02T04:32:29.922Z,93.8802
2023-05-02T04:33:30.813Z,94.0934
2023-05-02T04:34:31.210Z,94.3834
2023-05-02T04:35:31.888Z,94.5271
2023-05-02T04:36:32.391Z,94.7218
2023-05-02T04:37:32.600Z,94.9388
2023-05-02T04:38:33.145Z,95.1559
2023-05-02T04:39:33.626Z,95.2207
2023-05-02T04:40:34.134Z,95.2416
2023-05-02T04:41:34.844Z,95.3041
2023-05-02T04:42:35.237Z,95.4076
2023-05-02T04:43:35.671Z,95.4753
2023-05-02T04:44:36.511Z,95.4924
2023-05-02T04:45:37.186Z,95.5845
2023-05-02T04:46:38.313Z,95.6536
2023-05-02T04:47:38.949Z,95.6775
2023-05-02T04:48:39.908Z,95.7098
2023-05-02T04:49:40.877Z,95.7167
2023-05-02T04:50:42.156Z,95.6755
2023-05-02T04:51:42.968Z,95.7232
2023-05-02T04:52:43.576Z,95.7491
2023-05-02T04:53:43.920Z,95.7886
2023-05-02T04:54:44.591Z,95.8932
2023-05-02T04:55:44.948Z,95.8701
2023-05-02T04:56:45.565Z,95.8258
2023-05-02T04:57:46.820Z,95.9299
2023-05-02T04:58:47.317Z,95.9464
2023-05-02T04:59:47.971Z,95.9120
2023-05-02T05:00:48.571Z,95.9664
2023-05-02T05:01:49.336Z,95.9902
2023-05-02T05:02:50.978Z,96.0504
2023-05-02T05:03:51.075Z,96.1976
2023-05-02T05:04:51.679Z,96.1959
2023-05-02T05:05:51.952Z,96.2002
2023-05-02T05:06:53.125Z,96.2423
2023-05-02T05:07:53.816Z,96.3000
2023-05-02T05:08:54.482Z,96.4005
2023-05-02T05:09:55.980Z,96.4308
2023-05-02T05:10:57.005Z,96.4075
2023-05-02T05:11:57.691Z,96.4710
2023-05-02T05:12:58.149Z,96.5527
2023-05-02T05:13:58.874Z,96.6030
2023-05-02T05:14:59.354Z,96.6512
2023-05-02T05:16:00.255Z,96.6110
2023-05-02T05:17:00.423Z,96.4568
2023-05-02T05:18:01.003Z,96.2759
2023-05-02T05:19:01.340Z,95.9799
2023-05-02T05:20:02.276Z,95.7678
2023-05-02T05:21:02.857Z,95.6107
2023-05-02T05:23:04.324Z,95.3382
2023-05-02T05:24:04.822Z,95.2266
2023-05-02T05:25:05.699Z,94.8456
2023-05-02T05:26:06.544Z,94.8667
2023-05-02T05:27:07.396Z,95.0058
2023-05-02T05:28:08.083Z,95.1148
2023-05-02T05:29:08.776Z,95.0634
2023-05-02T05:30:09.729Z,95.0101
2023-05-02T05:31:10.599Z,94.9939
2023-05-02T05:32:11.668Z,94.8612
2023-05-02T05:33:12.393Z,94.6740
2023-05-02T05:34:12.814Z,94.6258
2023-05-02T05:35:13.551Z,94.4051
2023-05-02T05:36:14.774Z,94.3350
2023-05-02T05:37:15.363Z,94.1591
2023-05-02T05:38:15.907Z,93.9050
2023-05-02T05:39:16.665Z,93.6040
2023-05-02T05:40:17.581Z,93.2636
2023-05-02T05:41:18.292Z,93.4170
2023-05-02T05:42:19.053Z,93.5064
2023-05-02T05:43:20.089Z,93.3838
2023-05-02T05:44:20.576Z,93.1524
2023-05-02T05:45:21.507Z,92.9113
2023-05-02T05:46:23.146Z,92.9384
2023-05-02T05:47:24.179Z,92.9750
2023-05-02T05:48:25.318Z,92.9773
2023-05-02T05:49:26.124Z,92.9584
2023-05-02T05:50:26.754Z,93.0502
2023-05-02T05:51:27.699Z,93.0767
2023-05-02T05:52:28.406Z,93.1354
2023-05-02T05:53:29.437Z,93.1775
2023-05-02T05:54:30.369Z,93.0934
2023-05-02T05:55:31.087Z,93.0853
2023-05-02T05:56:31.939Z,93.1106
2023-05-02T05:57:32.654Z,92.9537
2023-05-02T05:58:33.381Z,92.8608
2023-05-02T05:59:34.355Z,92.9051
2023-05-02T06:00:35.794Z,93.1169
2023-05-02T06:01:36.605Z,92.8412
2023-05-02T06:02:36.757Z,92.6685
2023-05-02T06:03:37.296Z,92.8500
2023-05-02T06:04:37.576Z,92.7838
2023-05-02T06:05:38.139Z,92.3098
2023-05-02T06:06:39.065Z,91.8406
2023-05-02T06:07:39.947Z,91.8737
2023-05-02T06:08:40.459Z,92.0898
2023-05-02T06:09:41.297Z,92.1289
2023-05-02T06:10:42.549Z,92.0327
2023-05-02T06:11:43.163Z,92.0312
2023-05-02T06:12:45.209Z,91.6153
2023-05-02T06:13:45.256Z,91.4422
2023-05-02T06:14:45.698Z,90.8462
2023-05-02T06:15:46.295Z,91.0646
2023-05-02T06:16:47.197Z,91.2864
2023-05-02T06:17:48.071Z,91.1711
2023-05-02T06:18:48.926Z,91.8198
2023-05-02T06:19:49.497Z,91.7524
2023-05-02T06:20:49.867Z,91.2108
2023-05-02T06:21:50.683Z,91.1152
2023-05-02T06:22:51.127Z,91.2598
2023-05-02T06:23:51.946Z,91.4419
2023-05-02T06:24:52.526Z,91.4321
2023-05-02T06:25:53.033Z,91.6469
2023-05-02T06:26:53.743Z,91.7892
2023-05-02T06:27:54.297Z,91.1115
2023-05-02T06:28:54.896Z,91.0698
2023-05-02T06:29:55.670Z,91.6977
2023-05-02T06:30:56.111Z,92.3211
2023-05-02T06:31:57.171Z,92.0413
2023-05-02T06:32:57.998Z,91.8894
2023-05-02T06:33:58.762Z,92.5942
2023-05-02T06:34:59.503Z,92.5532
2023-05-02T06:36:01.834Z,92.4581
2023-05-02T06:37:00.392Z,92.4461
2023-05-02T06:38:01.067Z,91.9661
2023-05-02T06:39:01.676Z,91.8544
2023-05-02T06:40:03.288Z,92.3912
2023-05-02T06:41:04.238Z,92.3459
2023-05-02T06:42:04.521Z,92.1484
2023-05-02T06:43:05.403Z,92.1707
2023-05-02T06:44:06.067Z,92.5829
2023-05-02T06:45:06.750Z,92.3870
2023-05-02T06:46:07.472Z,91.9772
2023-05-02T06:47:08.174Z,92.0919
2023-05-02T06:48:08.476Z,91.7714
2023-05-02T06:49:09.323Z,91.2495
2023-05-02T06:50:10.527Z,90.8824
2023-05-02T06:51:11.270Z,90.1641
2023-05-02T06:52:12.053Z,89.9584
2023-05-02T06:53:12.657Z,89.0513
2023-05-02T06:54:13.645Z,89.1569
2023-05-02T06:55:14.383Z,89.3754
2023-05-02T06:56:15.016Z,89.4422
2023-05-02T06:57:15.782Z,89.0409
2023-05-02T06:58:16.264Z,88.7270
2023-05-02T06:59:16.965Z,88.9257
2023-05-02T07:00:17.871Z,89.4840
2023-05-02T07:01:18.953Z,89.6434
2023-05-02T07:02:19.571Z,89.9927
2023-05-02T07:03:20.679Z,89.7484
2023-05-02T07:04:21.361Z,89.6344
2023-05-02T07:05:22.068Z,89.4484
2023-05-02T07:06:22.698Z,89.4116
2023-05-02T07:07:23.315Z,89.1202
2023-05-02T07:08:23.891Z,89.6510
2023-05-02T07:09:24.390Z,89.9492
2023-05-02T07:10:25.710Z,89.6048
2023-05-02T07:11:26.374Z,88.2625
2023-05-02T07:12:27.556Z,88.4237
2023-05-02T07:13:28.502Z,88.9027
2023-05-02T07:14:29.056Z,89.1710
2023-05-02T07:15:29.466Z,88.8073
2023-05-02T07:16:30.428Z,88.5433
2023-05-02T07:17:31.278Z,88.4899
2023-05-02T07:18:32.279Z,88.5763
2023-05-02T07:19:32.899Z,88.9129
2023-05-02T07:20:33.948Z,89.4966
2023-05-02T07:21:34.629Z,89.3098
2023-05-02T07:22:35.273Z,89.4634
2023-05-02T07:23:35.706Z,89.6253
2023-05-02T07:24:36.393Z,89.5867
2023-05-02T07:25:37.238Z,89.2788
2023-05-02T07:26:37.998Z,89.3858
2023-05-02T07:27:38.576Z,88.9476
2023-05-02T07:28:39.195Z,88.7860
2023-05-02T07:29:39.896Z,89.2400
2023-05-02T07:30:40.543Z,89.0049
2023-05-02T07:31:41.119Z,88.8133
2023-05-02T07:32:42.016Z,88.2236
2023-05-02T07:33:42.967Z,87.8575
2023-05-02T07:34:43.610Z,88.5211
2023-05-02T07:35:44.261Z,88.5484
2023-05-02T07:36:44.616Z,88.5485
2023-05-02T07:37:45.219Z,88.4404
2023-05-02T07:38:45.806Z,88.6211
2023-05-02T07:39:46.246Z,88.7997
2023-05-02T07:40:46.890Z,88.5932
2023-05-02T07:41:47.482Z,88.2564
2023-05-02T07:42:47.985Z,87.9657
2023-05-02T07:43:48.710Z,88.2596
2023-05-02T07:44:49.178Z,88.1107
2023-05-02T07:45:50.150Z,87.6945
2023-05-02T07:46:50.276Z,88.1727
2023-05-02T07:47:50.659Z,88.0334
2023-05-02T07:48:51.588Z,87.6594
2023-05-02T07:49:52.330Z,87.7798
2023-05-02T07:50:52.535Z,87.7475
2023-05-02T07:51:53.265Z,87.8824
2023-05-02T07:52:53.812Z,88.5312
2023-05-02T07:53:54.225Z,88.1327
2023-05-02T07:54:54.900Z,88.5390
2023-05-02T07:55:55.296Z,88.1716
2023-05-02T07:56:55.821Z,87.8499
2023-05-02T07:57:56.472Z,87.1859
2023-05-02T07:58:56.895Z,87.5558
2023-05-02T07:59:57.693Z,87.2557
2023-05-02T08:00:58.092Z,87.1976
2023-05-02T08:01:58.684Z,87.1662
2023-05-02T08:02:59.985Z,87.3719
2023-05-02T08:04:00.656Z,87.6718
2023-05-02T08:05:01.479Z,87.1602
2023-05-02T08:06:01.616Z,87.5868
2023-05-02T08:07:02.450Z,88.8045
2023-05-02T08:08:03.256Z,88.4625
2023-05-02T08:09:03.702Z,87.5995
2023-05-02T08:10:04.557Z,85.1651
2023-05-02T08:11:04.433Z,85.0017
2023-05-02T08:12:05.369Z,85.8100
2023-05-02T08:13:06.111Z,85.7037
2023-05-02T08:14:06.858Z,86.1908
2023-05-02T08:15:07.342Z,86.3432
2023-05-02T08:16:08.426Z,85.9087
2023-05-02T08:17:08.751Z,85.8601
2023-05-02T08:18:09.497Z,85.7214
2023-05-02T08:19:10.342Z,85.4321
2023-05-02T08:20:10.403Z,85.4655
2023-05-02T08:21:11.092Z,85.3628
2023-05-02T08:22:12.040Z,85.7058
2023-05-02T08:23:12.642Z,85.5364
2023-05-02T08:24:14.329Z,84.2489
2023-05-02T08:25:15.072Z,84.2388
2023-05-02T08:26:15.731Z,85.0350
2023-05-02T08:27:16.498Z,84.3658
2023-05-02T08:28:17.299Z,84.0604
2023-05-02T08:29:17.870Z,84.0404
2023-05-02T08:30:18.828Z,83.7637
2023-05-02T08:31:19.667Z,83.9411
2023-05-02T08:32:20.872Z,84.4398
2023-05-02T08:33:21.947Z,84.5266
2023-05-02T08:34:22.707Z,84.0435
2023-05-02T08:35:23.324Z,83.9759
2023-05-02T08:36:24.253Z,83.9173
2023-05-02T08:37:24.656Z,83.7830
2023-05-02T08:38:25.266Z,83.2885
2023-05-02T08:39:26.007Z,83.8227
2023-05-02T08:40:38.199Z,85.3037
2023-05-02T08:41:27.210Z,83.4324
2023-05-02T08:42:27.618Z,82.1962
2023-05-02T08:43:28.279Z,82.3152
2023-05-02T08:44:29.000Z,81.8143
2023-05-02T08:45:30.035Z,81.5187
2023-05-02T08:46:31.133Z,82.1565
2023-05-02T08:47:32.110Z,81.3438
2023-05-02T08:48:32.182Z,81.0156
2023-05-02T08:49:32.692Z,80.9390
2023-05-02T08:50:33.390Z,79.6797
2023-05-02T08:51:33.481Z,79.7077
2023-05-02T08:52:34.016Z,80.1203
2023-05-02T08:53:34.749Z,80.0607
2023-05-02T08:54:35.250Z,80.3164
2023-05-02T08:55:35.915Z,79.9374
2023-05-02T08:56:36.837Z,80.1558
2023-05-02T08:57:37.366Z,79.9478
2023-05-02T08:58:38.020Z,79.9127
2023-05-02T08:59:39.189Z,79.3107
2023-05-02T09:00:39.736Z,79.2247
2023-05-02T09:01:40.886Z,78.8530
2023-05-02T09:02:41.629Z,78.3133
2023-05-02T09:03:42.385Z,77.3409
2023-05-02T09:04:43.418Z,77.2528
2023-05-02T09:05:43.375Z,77.7126
2023-05-02T09:06:44.172Z,78.3951
2023-05-02T09:07:44.817Z,76.3427
2023-05-02T09:08:45.266Z,74.6297
2023-05-02T09:09:45.840Z,75.3276
2023-05-02T09:10:46.480Z,74.8446
2023-05-02T09:11:46.979Z,73.4584
2023-05-02T09:12:47.826Z,73.2084
2023-05-02T09:13:48.353Z,73.0022
2023-05-02T09:14:49.065Z,72.7349
2023-05-02T09:15:49.843Z,72.6393
2023-05-02T09:16:50.631Z,72.7186
2023-05-02T09:17:51.684Z,73.0229
2023-05-02T09:18:52.381Z,73.1491
2023-05-02T09:19:52.977Z,76.2943
2023-05-02T09:20:53.634Z,76.9285
2023-05-02T09:21:54.588Z,76.4234
2023-05-02T09:22:55.200Z,76.7146
2023-05-02T09:23:55.750Z,75.3352
2023-05-02T09:24:56.271Z,75.1208
2023-05-02T09:25:57.628Z,74.8267
2023-05-02T09:26:58.941Z,74.3085
2023-05-02T09:27:59.714Z,73.3555
2023-05-02T09:29:00.481Z,72.4111
2023-05-02T09:30:01.391Z,73.3134
2023-05-02T09:31:02.439Z,72.4760
2023-05-02T09:32:03.750Z,74.4499
2023-05-02T09:33:04.867Z,72.0117
2023-05-02T09:34:05.309Z,70.5817
2023-05-02T09:35:06.225Z,72.4263
2023-05-02T09:36:06.741Z,71.6683
2023-05-02T09:37:07.391Z,71.8812
2023-05-02T09:38:08.093Z,71.9893
2023-05-02T09:39:09.015Z,71.8523
2023-05-02T09:40:09.610Z,69.9995
2023-05-02T09:41:10.418Z,68.2600
2023-05-02T09:42:10.995Z,68.8258
2023-05-02T09:43:11.687Z,69.6711
2023-05-02T09:44:12.276Z,71.6816
2023-05-02T09:45:13.481Z,72.4463
2023-05-02T09:46:14.335Z,73.7048
2023-05-02T09:47:15.536Z,74.2641
2023-05-02T09:48:16.429Z,73.3726
2023-05-02T09:49:17.314Z,72.8006
2023-05-02T09:50:18.118Z,74.5033
2023-05-02T09:51:18.847Z,75.6307
2023-05-02T09:52:19.646Z,74.3710
2023-05-02T09:53:20.155Z,74.3859
2023-05-02T09:54:20.798Z,74.3570
2023-05-02T09:55:21.489Z,73.7883
2023-05-02T09:56:23.298Z,74.5302
2023-05-02T09:57:22.866Z,73.7484
2023-05-02T09:58:23.352Z,73.0413
2023-05-02T09:59:24.042Z,72.5494
2023-05-02T10:00:24.768Z,73.8047
2023-05-02T10:01:25.459Z,73.3115
2023-05-02T10:02:25.965Z,72.3674
2023-05-02T10:03:26.973Z,73.7095
2023-05-02T10:04:28.260Z,73.7386
2023-05-02T10:05:30.176Z,72.8288
2023-05-02T10:06:29.653Z,70.4996
2023-05-02T10:07:30.756Z,70.8017
2023-05-02T10:08:31.706Z,71.9313
2023-05-02T10:09:31.768Z,72.8315
2023-05-02T10:10:32.355Z,72.5148
2023-05-02T10:11:33.368Z,72.2519
2023-05-02T10:12:33.992Z,72.2886
2023-05-02T10:13:34.760Z,72.3416
2023-05-02T10:14:37.191Z,69.2812
2023-05-02T10:15:37.807Z,68.3186
2023-05-02T10:16:39.002Z,66.7711
2023-05-02T10:17:39.847Z,67.1352
2023-05-02T10:18:40.983Z,68.4584
2023-05-02T10:19:41.755Z,70.2015
2023-05-02T10:20:42.421Z,68.9197
2023-05-02T10:21:42.948Z,68.1232
2023-05-02T10:22:43.742Z,68.0374
2023-05-02T10:23:44.374Z,67.4096
2023-05-02T10:24:45.218Z,67.2208
2023-05-02T10:25:45.895Z,67.8078
2023-05-02T10:26:46.455Z,67.9786
2023-05-02T10:27:47.171Z,70.7294
2023-05-02T10:28:48.090Z,71.2481
2023-05-02T10:29:48.794Z,70.5627
2023-05-02T10:30:49.546Z,68.4597
2023-05-02T10:31:50.134Z,69.7117
2023-05-02T10:32:51.159Z,69.9100
2023-05-02T10:33:52.168Z,68.9861
2023-05-02T10:34:52.678Z,68.4999
2023-05-02T10:35:53.326Z,69.4963
2023-05-02T10:36:54.011Z,69.6276
2023-05-02T10:39:04.223Z,70.3323
2023-05-02T10:40:04.851Z,69.4473
2023-05-02T10:41:05.393Z,68.6663
2023-05-02T10:42:06.068Z,68.9418
2023-05-02T10:43:06.707Z,69.8627
2023-05-02T10:44:07.271Z,71.2332
2023-05-02T10:45:07.994Z,70.5745
2023-05-02T10:46:08.557Z,71.8836
2023-05-02T10:47:09.011Z,72.6964
2023-05-02T10:48:09.970Z,73.5210
2023-05-02T10:49:10.492Z,72.6249
2023-05-02T10:50:11.340Z,71.7636
2023-05-02T10:52:11.720Z,71.5985
2023-05-02T10:53:12.339Z,72.0432
2023-05-02T10:54:12.735Z,73.2752
2023-05-02T10:55:13.482Z,75.1916
2023-05-02T10:56:14.205Z,73.9486
2023-05-02T10:57:14.716Z,72.6509
2023-05-02T10:58:15.662Z,72.0104
2023-05-02T10:59:16.472Z,72.4888
2023-05-02T11:00:16.934Z,72.0847
2023-05-02T11:01:17.922Z,72.0275
2023-05-02T11:02:18.752Z,73.3026
2023-05-02T11:03:19.088Z,72.6623
2023-05-02T11:04:19.846Z,72.6797
2023-05-02T11:05:21.120Z,71.4528
2023-05-02T11:06:21.934Z,71.5063
2023-05-02T11:07:23.251Z,71.4522
2023-05-02T11:08:24.325Z,72.3778
2023-05-02T11:09:24.859Z,71.3478
2023-05-02T11:10:25.637Z,72.5435
2023-05-02T11:11:26.048Z,72.9393
2023-05-02T11:12:26.749Z,72.1642
2023-05-02T11:13:27.149Z,71.8744
2023-05-02T11:14:27.760Z,72.3765
2023-05-02T11:15:28.475Z,71.7027
2023-05-02T11:16:29.153Z,72.4212
2023-05-02T11:17:30.108Z,72.7964
2023-05-02T11:18:31.073Z,70.4408
2023-05-02T11:19:31.752Z,70.9120
2023-05-02T11:20:32.519Z,71.8513
2023-05-02T11:21:33.030Z,70.6384
2023-05-02T11:22:33.708Z,69.2057
2023-05-02T11:23:34.393Z,71.4240
2023-05-02T11:24:34.957Z,69.8320
2023-05-02T11:25:35.538Z,69.8401
2023-05-02T11:26:36.148Z,69.4345
2023-05-02T11:27:36.588Z,70.0292
2023-05-02T11:28:37.398Z,70.3960
2023-05-02T11:29:37.886Z,70.2981
2023-05-02T11:30:38.450Z,70.2968
2023-05-02T11:31:39.638Z,70.3529
2023-05-02T11:32:39.660Z,69.0989
2023-05-02T11:33:40.731Z,67.4693
2023-05-02T11:34:41.420Z,69.6056
2023-05-02T11:35:41.637Z,70.5926
2023-05-02T11:36:42.320Z,68.6208
2023-05-02T11:37:42.833Z,69.2458
2023-05-02T11:38:43.406Z,69.3837
2023-05-02T11:39:44.260Z,65.2867
2023-05-02T11:40:44.769Z,63.5522
2023-05-02T11:41:45.464Z,65.0412
2023-05-02T11:42:46.088Z,67.0701
2023-05-02T11:43:46.163Z,66.3849
2023-05-02T11:44:46.813Z,66.5780
2023-05-02T11:45:47.322Z,65.3293
2023-05-02T11:46:48.053Z,67.7721
2023-05-02T11:47:48.845Z,66.6250
2023-05-02T11:48:49.622Z,63.0241
2023-05-02T11:49:50.589Z,58.7537
2023-05-02T11:50:52.612Z,56.8934
2023-05-02T11:51:53.015Z,57.2059
2023-05-02T11:52:53.658Z,60.5427
2023-05-02T11:53:54.409Z,58.2228
2023-05-02T11:54:54.876Z,56.7427
2023-05-02T11:55:56.152Z,54.5536
2023-05-02T11:56:56.600Z,56.5099
2023-05-02T11:57:57.195Z,56.6759
2023-05-02T11:58:57.300Z,56.5097
2023-05-02T11:59:58.129Z,57.2119
2023-05-02T12:00:59.116Z,56.9086
2023-05-02T12:01:59.737Z,56.8048
2023-05-02T12:03:00.751Z,59.7584
2023-05-02T12:04:01.620Z,60.1684
2023-05-02T12:05:03.217Z,61.6750
2023-05-02T12:06:03.306Z,61.3113
2023-05-02T12:07:04.004Z,58.4946
2023-05-02T12:08:05.064Z,58.1788
2023-05-02T12:09:05.496Z,58.1761
2023-05-02T12:10:06.173Z,56.8333
2023-05-02T12:11:06.605Z,53.8323
2023-05-02T12:12:07.259Z,52.2361
2023-05-02T12:13:08.906Z,51.0409
2023-05-02T12:14:08.104Z,49.2113
2023-05-02T12:15:09.395Z,51.2569
2023-05-02T12:16:10.453Z,50.1739
2023-05-02T12:17:11.253Z,47.7705
2023-05-02T12:18:12.520Z,46.3961
2023-05-02T12:19:12.853Z,49.1859
2023-05-02T12:20:13.437Z,49.6207
2023-05-02T12:21:14.137Z,52.1756
2023-05-02T12:22:14.759Z,54.7838
2023-05-02T12:23:15.410Z,55.9122
2023-05-02T12:24:16.229Z,56.8989
2023-05-02T12:25:16.775Z,60.3674
2023-05-02T12:26:16.814Z,61.3847
2023-05-02T12:27:16.995Z,60.7056
2023-05-02T12:28:17.617Z,61.3601
2023-05-02T12:29:18.430Z,64.9176
2023-05-02T12:30:19.143Z,66.1840
2023-05-02T12:31:20.008Z,67.7931
2023-05-02T12:32:20.919Z,69.5114
2023-05-02T12:33:21.740Z,70.7415
2023-05-02T12:34:22.563Z,72.0802
2023-05-02T12:35:23.318Z,73.0161
2023-05-02T12:36:23.265Z,73.6475
2023-05-02T12:37:23.969Z,73.8540
2023-05-02T12:38:25.134Z,74.6570
2023-05-02T12:39:25.930Z,75.0933
2023-05-02T12:40:26.429Z,75.7608
2023-05-02T12:41:27.132Z,76.5054
2023-05-02T12:42:27.931Z,76.4800
2023-05-02T12:43:28.418Z,76.9440
2023-05-02T12:44:28.540Z,77.8223
2023-05-02T12:45:29.160Z,78.0330
2023-05-02T12:46:30.057Z,78.1378
2023-05-02T12:47:31.380Z,78.0785
2023-05-02T12:48:32.144Z,78.0224
2023-05-02T12:49:32.922Z,78.8422
2023-05-02T12:50:34.039Z,79.6355
2023-05-02T12:51:34.861Z,81.0428
2023-05-02T12:52:35.718Z,82.5652
2023-05-02T12:53:36.286Z,82.6419
2023-05-02T12:54:36.943Z,82.2965
2023-05-02T12:55:37.676Z,82.1219
2023-05-02T12:56:38.301Z,84.2882
2023-05-02T12:57:39.080Z,86.7339
2023-05-02T12:58:39.894Z,88.3017
2023-05-02T12:59:40.347Z,89.8078
2023-05-02T13:00:41.194Z,90.4803
2023-05-02T13:01:42.586Z,90.9794
2023-05-02T13:02:43.472Z,91.6192
2023-05-02T13:03:43.930Z,92.1048
2023-05-02T13:04:45.185Z,92.1977